sensor_id;sensor_type;location;lat;lon;timestamp;pressure;altitude;pressure_sealevel;temperature
76541;BMP280;65385;55.772;37.658;2023-05-27T00:00:38;99492.59;;;17.70
76541;BMP280;65385;55.772;37.658;2023-05-27T00:01:39;99498.97;;;17.69
76541;BMP280;65385;55.772;37.658;2023-05-27T00:02:40;99503.47;;;17.68
76541;BMP280;65385;55.772;37.658;2023-05-27T00:03:40;99493.50;;;17.65
76541;BMP280;65385;55.772;37.658;2023-05-27T00:04:41;99495.69;;;17.63
76541;BMP280;65385;55.772;37.658;2023-05-27T00:05:42;99498.66;;;17.61
76541;BMP280;65385;55.772;37.658;2023-05-27T00:06:42;99500.06;;;17.59
76541;BMP280;65385;55.772;37.658;2023-05-27T00:07:43;99497.56;;;17.54
76541;BMP280;65385;55.772;37.658;2023-05-27T00:08:44;99499.44;;;17.53
76541;BMP280;65385;55.772;37.658;2023-05-27T00:09:44;99500.84;;;17.51
76541;BMP280;65385;55.772;37.658;2023-05-27T00:10:45;99495.09;;;17.49
76541;BMP280;65385;55.772;37.658;2023-05-27T00:11:46;99504.88;;;17.48
76541;BMP280;65385;55.772;37.658;2023-05-27T00:12:47;99502.56;;;17.47
76541;BMP280;65385;55.772;37.658;2023-05-27T00:13:48;99498.66;;;17.44
76541;BMP280;65385;55.772;37.658;2023-05-27T00:14:48;99498.94;;;17.43
76541;BMP280;65385;55.772;37.658;2023-05-27T00:15:49;99496.66;;;17.41
76541;BMP280;65385;55.772;37.658;2023-05-27T00:16:49;99492.44;;;17.40
76541;BMP280;65385;55.772;37.658;2023-05-27T00:17:51;99482.16;;;17.39
76541;BMP280;65385;55.772;37.658;2023-05-27T00:18:52;99501.75;;;17.38
76541;BMP280;65385;55.772;37.658;2023-05-27T00:19:52;99490.72;;;17.36
76541;BMP280;65385;55.772;37.658;2023-05-27T00:20:54;99501.31;;;17.36
76541;BMP280;65385;55.772;37.658;2023-05-27T00:21:55;99498.19;;;17.34
76541;BMP280;65385;55.772;37.658;2023-05-27T00:22:56;99481.09;;;17.31
76541;BMP280;65385;55.772;37.658;2023-05-27T00:23:57;99493.53;;;17.31
76541;BMP280;65385;55.772;37.658;2023-05-27T00:24:58;99486.69;;;17.30
76541;BMP280;65385;55.772;37.658;2023-05-27T00:25:58;99485.47;;;17.27
76541;BMP280;65385;55.772;37.658;2023-05-27T00:26:59;99492.63;;;17.27
76541;BMP280;65385;55.772;37.658;2023-05-27T00:28:00;99486.53;;;17.26
76541;BMP280;65385;55.772;37.658;2023-05-27T00:29:02;99486.06;;;17.24
76541;BMP280;65385;55.772;37.658;2023-05-27T00:30:02;99490.09;;;17.22
76541;BMP280;65385;55.772;37.658;2023-05-27T00:31:07;99488.53;;;17.21
76541;BMP280;65385;55.772;37.658;2023-05-27T00:32:08;99480.59;;;17.21
76541;BMP280;65385;55.772;37.658;2023-05-27T00:33:09;99480.16;;;17.19
76541;BMP280;65385;55.772;37.658;2023-05-27T00:34:09;99480.47;;;17.17
76541;BMP280;65385;55.772;37.658;2023-05-27T00:35:10;99476.72;;;17.18
76541;BMP280;65385;55.772;37.658;2023-05-27T00:36:10;99488.41;;;17.17
76541;BMP280;65385;55.772;37.658;2023-05-27T00:37:11;99480.47;;;17.17
76541;BMP280;65385;55.772;37.658;2023-05-27T00:38:12;99480.16;;;17.19
76541;BMP280;65385;55.772;37.658;2023-05-27T00:39:13;99487.00;;;17.20
76541;BMP280;65385;55.772;37.658;2023-05-27T00:40:15;99482.50;;;17.20
76541;BMP280;65385;55.772;37.658;2023-05-27T00:41:18;99487.78;;;17.20
76541;BMP280;65385;55.772;37.658;2023-05-27T00:42:20;99482.50;;;17.20
76541;BMP280;65385;55.772;37.658;2023-05-27T00:43:20;99481.72;;;17.20
76541;BMP280;65385;55.772;37.658;2023-05-27T00:44:21;99489.66;;;17.20
76541;BMP280;65385;55.772;37.658;2023-05-27T00:45:22;99479.06;;;17.20
76541;BMP280;65385;55.772;37.658;2023-05-27T00:46:23;99477.03;;;17.17
76541;BMP280;65385;55.772;37.658;2023-05-27T00:47:27;99480.47;;;17.17
76541;BMP280;65385;55.772;37.658;2023-05-27T00:48:29;99477.03;;;17.17
76541;BMP280;65385;55.772;37.658;2023-05-27T00:49:30;99489.78;;;17.15
76541;BMP280;65385;55.772;37.658;2023-05-27T00:50:31;99478.41;;;17.14
76541;BMP280;65385;55.772;37.658;2023-05-27T00:51:32;99482.91;;;17.14
76541;BMP280;65385;55.772;37.658;2023-05-27T00:52:33;99477.63;;;17.14
76541;BMP280;65385;55.772;37.658;2023-05-27T00:53:39;99477.63;;;17.14
76541;BMP280;65385;55.772;37.658;2023-05-27T00:54:43;99482.50;;;17.12
76541;BMP280;65385;55.772;37.658;2023-05-27T00:55:44;99491.97;;;17.13
76541;BMP280;65385;55.772;37.658;2023-05-27T00:56:46;99486.22;;;17.11
76541;BMP280;65385;55.772;37.658;2023-05-27T00:57:46;99490.72;;;17.10
76541;BMP280;65385;55.772;37.658;2023-05-27T00:58:47;99486.50;;;17.09
76541;BMP280;65385;55.772;37.658;2023-05-27T00:59:48;99490.09;;;17.04
76541;BMP280;65385;55.772;37.658;2023-05-27T01:00:49;99491.50;;;17.02
76541;BMP280;65385;55.772;37.658;2023-05-27T01:01:50;99484.94;;;16.99
76541;BMP280;65385;55.772;37.658;2023-05-27T01:02:51;99491.66;;;16.97
76541;BMP280;65385;55.772;37.658;2023-05-27T01:03:52;99490.38;;;16.94
76541;BMP280;65385;55.772;37.658;2023-05-27T01:04:53;99486.50;;;16.92
76541;BMP280;65385;55.772;37.658;2023-05-27T01:06:01;99503.13;;;16.92
76541;BMP280;65385;55.772;37.658;2023-05-27T01:08:37;99491.59;;;16.88
76541;BMP280;65385;55.772;37.658;2023-05-27T01:11:28;99489.91;;;16.84
76541;BMP280;65385;55.772;37.658;2023-05-27T01:12:38;99492.84;;;16.82
76541;BMP280;65385;55.772;37.658;2023-05-27T01:13:52;99495.81;;;16.81
76541;BMP280;65385;55.772;37.658;2023-05-27T01:14:57;99498.13;;;16.82
76541;BMP280;65385;55.772;37.658;2023-05-27T01:16:01;99504.19;;;16.83
76541;BMP280;65385;55.772;37.658;2023-05-27T01:17:05;99498.91;;;16.83
76541;BMP280;65385;55.772;37.658;2023-05-27T01:18:09;99499.69;;;16.83
76541;BMP280;65385;55.772;37.658;2023-05-27T01:19:15;99497.03;;;16.83
76541;BMP280;65385;55.772;37.658;2023-05-27T01:20:18;99495.19;;;16.84
76541;BMP280;65385;55.772;37.658;2023-05-27T01:21:21;99502.78;;;16.85
76541;BMP280;65385;55.772;37.658;2023-05-27T01:22:27;99503.44;;;16.91
76541;BMP280;65385;55.772;37.658;2023-05-27T01:23:28;99500.16;;;16.94
76541;BMP280;65385;55.772;37.658;2023-05-27T01:24:29;99501.13;;;16.98
76541;BMP280;65385;55.772;37.658;2023-05-27T01:25:30;99498.16;;;16.99
76541;BMP280;65385;55.772;37.658;2023-05-27T01:26:31;99493.81;;;17.03
76541;BMP280;65385;55.772;37.658;2023-05-27T01:27:31;99502.22;;;17.05
76541;BMP280;65385;55.772;37.658;2023-05-27T01:28:33;99488.38;;;17.08
76541;BMP280;65385;55.772;37.658;2023-05-27T01:29:34;99501.00;;;17.12
76541;BMP280;65385;55.772;37.658;2023-05-27T01:30:38;99497.25;;;17.13
76541;BMP280;65385;55.772;37.658;2023-05-27T01:31:43;99502.22;;;17.14
76541;BMP280;65385;55.772;37.658;2023-05-27T01:32:55;99502.69;;;17.16
76541;BMP280;65385;55.772;37.658;2023-05-27T01:34:08;99505.63;;;17.15
76541;BMP280;65385;55.772;37.658;2023-05-27T01:35:22;99504.06;;;17.14
76541;BMP280;65385;55.772;37.658;2023-05-27T01:36:26;99503.31;;;17.13
76541;BMP280;65385;55.772;37.658;2023-05-27T01:37:31;99505.19;;;17.13
76541;BMP280;65385;55.772;37.658;2023-05-27T01:38:33;99499.13;;;17.12
76541;BMP280;65385;55.772;37.658;2023-05-27T01:39:36;99507.81;;;17.13
76541;BMP280;65385;55.772;37.658;2023-05-27T01:40:39;99507.81;;;17.13
76541;BMP280;65385;55.772;37.658;2023-05-27T01:41:42;99507.81;;;17.13
76541;BMP280;65385;55.772;37.658;2023-05-27T01:42:47;99504.56;;;17.16
76541;BMP280;65385;55.772;37.658;2023-05-27T01:43:49;99509.22;;;17.19
76541;BMP280;65385;55.772;37.658;2023-05-27T01:44:51;99505.50;;;17.20
76541;BMP280;65385;55.772;37.658;2023-05-27T01:45:52;99509.69;;;17.21
76541;BMP280;65385;55.772;37.658;2023-05-27T01:46:58;99494.94;;;17.20
76541;BMP280;65385;55.772;37.658;2023-05-27T01:47:59;99495.72;;;17.20
76541;BMP280;65385;55.772;37.658;2023-05-27T01:49:00;99503.66;;;17.20
76541;BMP280;65385;55.772;37.658;2023-05-27T01:50:01;99494.94;;;17.20
76541;BMP280;65385;55.772;37.658;2023-05-27T01:51:02;99493.38;;;17.19
76541;BMP280;65385;55.772;37.658;2023-05-27T01:52:03;99505.50;;;17.20
76541;BMP280;65385;55.772;37.658;2023-05-27T01:53:05;99496.47;;;17.21
76541;BMP280;65385;55.772;37.658;2023-05-27T01:54:06;99486.69;;;17.21
76541;BMP280;65385;55.772;37.658;2023-05-27T01:55:07;99497.56;;;17.20
76541;BMP280;65385;55.772;37.658;2023-05-27T01:56:10;99501.31;;;17.19
76541;BMP280;65385;55.772;37.658;2023-05-27T01:57:11;99497.88;;;17.18
76541;BMP280;65385;55.772;37.658;2023-05-27T01:58:11;99504.25;;;17.17
76541;BMP280;65385;55.772;37.658;2023-05-27T01:59:12;99500.53;;;17.18
76541;BMP280;65385;55.772;37.658;2023-05-27T02:00:13;99499.75;;;17.18
76541;BMP280;65385;55.772;37.658;2023-05-27T02:01:18;99500.53;;;17.18
76541;BMP280;65385;55.772;37.658;2023-05-27T02:02:19;99496.00;;;17.19
76541;BMP280;65385;55.772;37.658;2023-05-27T02:03:23;99503.66;;;17.20
76541;BMP280;65385;55.772;37.658;2023-05-27T02:04:24;99501.00;;;17.20
76541;BMP280;65385;55.772;37.658;2023-05-27T02:05:25;99505.19;;;17.21
76541;BMP280;65385;55.772;37.658;2023-05-27T02:06:26;99506.44;;;17.24
76541;BMP280;65385;55.772;37.658;2023-05-27T02:07:27;99504.84;;;17.23
76541;BMP280;65385;55.772;37.658;2023-05-27T02:08:28;99498.50;;;17.24
76541;BMP280;65385;55.772;37.658;2023-05-27T02:09:29;99501.63;;;17.26
76541;BMP280;65385;55.772;37.658;2023-05-27T02:10:30;99503.63;;;17.29
76541;BMP280;65385;55.772;37.658;2023-05-27T02:11:30;99500.97;;;17.37
76541;BMP280;65385;55.772;37.658;2023-05-27T02:12:31;99507.22;;;17.50
76541;BMP280;65385;55.772;37.658;2023-05-27T02:13:31;99499.13;;;17.63
76541;BMP280;65385;55.772;37.658;2023-05-27T02:14:32;99504.38;;;17.72
76541;BMP280;65385;55.772;37.658;2023-05-27T02:15:34;99505.19;;;17.81
76541;BMP280;65385;55.772;37.658;2023-05-27T02:16:37;99499.88;;;17.90
76541;BMP280;65385;55.772;37.658;2023-05-27T02:17:39;99515.25;;;17.96
76541;BMP280;65385;55.772;37.658;2023-05-27T02:18:40;99516.34;;;18.04
76541;BMP280;65385;55.772;37.658;2023-05-27T02:19:41;99516.94;;;18.09
76541;BMP280;65385;55.772;37.658;2023-05-27T02:20:44;99512.72;;;18.08
76541;BMP280;65385;55.772;37.658;2023-05-27T02:21:46;99511.66;;;18.09
76541;BMP280;65385;55.772;37.658;2023-05-27T02:22:46;99523.19;;;18.13
76541;BMP280;65385;55.772;37.658;2023-05-27T02:23:47;99525.31;;;18.20
76541;BMP280;65385;55.772;37.658;2023-05-27T02:24:48;99516.41;;;18.24
76541;BMP280;65385;55.772;37.658;2023-05-27T02:25:49;99510.50;;;18.28
76541;BMP280;65385;55.772;37.658;2023-05-27T02:26:50;99512.50;;;18.31
76541;BMP280;65385;55.772;37.658;2023-05-27T02:27:51;99515.81;;;18.28
76541;BMP280;65385;55.772;37.658;2023-05-27T02:28:52;99515.03;;;18.27
76541;BMP280;65385;55.772;37.658;2023-05-27T02:29:54;99514.88;;;18.23
76541;BMP280;65385;55.772;37.658;2023-05-27T02:30:54;99520.91;;;18.24
76541;BMP280;65385;55.772;37.658;2023-05-27T02:31:55;99509.56;;;18.23
76541;BMP280;65385;55.772;37.658;2023-05-27T02:32:56;99515.63;;;18.24
76541;BMP280;65385;55.772;37.658;2023-05-27T02:33:57;99518.59;;;18.22
76541;BMP280;65385;55.772;37.658;2023-05-27T02:34:58;99518.94;;;18.21
76541;BMP280;65385;55.772;37.658;2023-05-27T02:35:59;99520.81;;;18.20
76541;BMP280;65385;55.772;37.658;2023-05-27T02:37:01;99525.16;;;18.16
76541;BMP280;65385;55.772;37.658;2023-05-27T02:38:02;99535.31;;;18.14
76541;BMP280;65385;55.772;37.658;2023-05-27T02:39:03;99523.31;;;18.08
76541;BMP280;65385;55.772;37.658;2023-05-27T02:40:05;99521.00;;;18.07
76541;BMP280;65385;55.772;37.658;2023-05-27T02:41:07;99523.78;;;18.19
76541;BMP280;65385;55.772;37.658;2023-05-27T02:42:08;99520.91;;;18.33
76541;BMP280;65385;55.772;37.658;2023-05-27T02:43:09;99520.84;;;18.50
76541;BMP280;65385;55.772;37.658;2023-05-27T02:44:11;99533.38;;;18.70
76541;BMP280;65385;55.772;37.658;2023-05-27T02:45:12;99528.25;;;18.94
76541;BMP280;65385;55.772;37.658;2023-05-27T02:46:12;99534.78;;;19.17
76541;BMP280;65385;55.772;37.658;2023-05-27T02:47:13;99531.16;;;19.42
76541;BMP280;65385;55.772;37.658;2023-05-27T02:48:14;99518.63;;;19.64
76541;BMP280;65385;55.772;37.658;2023-05-27T02:49:14;99530.63;;;19.82
76541;BMP280;65385;55.772;37.658;2023-05-27T02:50:15;99529.25;;;19.96
76541;BMP280;65385;55.772;37.658;2023-05-27T02:51:16;99535.56;;;20.16
76541;BMP280;65385;55.772;37.658;2023-05-27T02:52:17;99534.13;;;20.43
76541;BMP280;65385;55.772;37.658;2023-05-27T02:53:18;99532.13;;;20.64
76541;BMP280;65385;55.772;37.658;2023-05-27T02:54:19;99530.53;;;20.87
76541;BMP280;65385;55.772;37.658;2023-05-27T02:55:19;99534.84;;;21.04
76541;BMP280;65385;55.772;37.658;2023-05-27T02:56:21;99534.59;;;21.09
76541;BMP280;65385;55.772;37.658;2023-05-27T02:57:22;99542.78;;;21.16
76541;BMP280;65385;55.772;37.658;2023-05-27T02:58:23;99541.44;;;21.22
76541;BMP280;65385;55.772;37.658;2023-05-27T02:59:24;99542.06;;;21.31
76541;BMP280;65385;55.772;37.658;2023-05-27T03:00:24;99546.81;;;21.38
76541;BMP280;65385;55.772;37.658;2023-05-27T03:01:25;99536.03;;;21.46
76541;BMP280;65385;55.772;37.658;2023-05-27T03:02:27;99544.19;;;21.53
76541;BMP280;65385;55.772;37.658;2023-05-27T03:03:28;99539.91;;;21.64
76541;BMP280;65385;55.772;37.658;2023-05-27T03:04:29;99554.41;;;21.67
76541;BMP280;65385;55.772;37.658;2023-05-27T03:05:30;99547.75;;;21.73
76541;BMP280;65385;55.772;37.658;2023-05-27T03:06:31;99542.03;;;21.59
76541;BMP280;65385;55.772;37.658;2023-05-27T03:07:32;99538.47;;;21.39
76541;BMP280;65385;55.772;37.658;2023-05-27T03:08:36;99540.81;;;21.41
76541;BMP280;65385;55.772;37.658;2023-05-27T03:09:36;99550.31;;;21.26
76541;BMP280;65385;55.772;37.658;2023-05-27T03:10:38;99544.78;;;21.07
76541;BMP280;65385;55.772;37.658;2023-05-27T03:11:38;99554.25;;;21.04
76541;BMP280;65385;55.772;37.658;2023-05-27T03:12:39;99551.78;;;20.99
76541;BMP280;65385;55.772;37.658;2023-05-27T03:13:40;99552.00;;;21.06
76541;BMP280;65385;55.772;37.658;2023-05-27T03:14:40;99550.09;;;21.07
76541;BMP280;65385;55.772;37.658;2023-05-27T03:15:42;99549.72;;;21.20
76541;BMP280;65385;55.772;37.658;2023-05-27T03:16:42;99551.22;;;21.18
76541;BMP280;65385;55.772;37.658;2023-05-27T03:17:43;99556.91;;;21.32
76541;BMP280;65385;55.772;37.658;2023-05-27T03:18:44;99552.69;;;21.31
76541;BMP280;65385;55.772;37.658;2023-05-27T03:19:44;99550.56;;;21.37
76541;BMP280;65385;55.772;37.658;2023-05-27T03:20:46;99546.22;;;21.44
76541;BMP280;65385;55.772;37.658;2023-05-27T03:21:48;99546.00;;;21.65
76541;BMP280;65385;55.772;37.658;2023-05-27T03:22:48;99554.91;;;21.84
76541;BMP280;65385;55.772;37.658;2023-05-27T03:23:49;99554.72;;;22.09
76541;BMP280;65385;55.772;37.658;2023-05-27T03:24:50;99560.50;;;22.26
76541;BMP280;65385;55.772;37.658;2023-05-27T03:25:52;99548.00;;;22.30
76541;BMP280;65385;55.772;37.658;2023-05-27T03:26:52;99543.38;;;22.27
76541;BMP280;65385;55.772;37.658;2023-05-27T03:27:53;99548.25;;;22.41
76541;BMP280;65385;55.772;37.658;2023-05-27T03:28:54;99543.44;;;22.46
76541;BMP280;65385;55.772;37.658;2023-05-27T03:29:55;99547.28;;;22.65
76541;BMP280;65385;55.772;37.658;2023-05-27T03:30:55;99544.13;;;22.78
76541;BMP280;65385;55.772;37.658;2023-05-27T03:32:08;99547.16;;;22.96
76541;BMP280;65385;55.772;37.658;2023-05-27T03:33:10;99549.19;;;23.02
76541;BMP280;65385;55.772;37.658;2023-05-27T03:34:12;99549.97;;;23.03
76541;BMP280;65385;55.772;37.658;2023-05-27T03:35:14;99555.25;;;22.99
76541;BMP280;65385;55.772;37.658;2023-05-27T03:36:19;99550.47;;;23.08
76541;BMP280;65385;55.772;37.658;2023-05-27T03:37:21;99544.63;;;23.03
76541;BMP280;65385;55.772;37.658;2023-05-27T03:38:32;99555.72;;;23.05
76541;BMP280;65385;55.772;37.658;2023-05-27T03:39:32;99551.03;;;22.98
76541;BMP280;65385;55.772;37.658;2023-05-27T03:40:34;99550.81;;;22.88
76541;BMP280;65385;55.772;37.658;2023-05-27T03:41:37;99551.53;;;22.85
76541;BMP280;65385;55.772;37.658;2023-05-27T03:42:38;99554.78;;;22.78
76541;BMP280;65385;55.772;37.658;2023-05-27T03:43:39;99553.97;;;22.59
76541;BMP280;65385;55.772;37.658;2023-05-27T03:44:39;99551.25;;;22.55
76541;BMP280;65385;55.772;37.658;2023-05-27T03:45:40;99562.09;;;22.62
76541;BMP280;65385;55.772;37.658;2023-05-27T03:46:41;99562.00;;;22.59
76541;BMP280;65385;55.772;37.658;2023-05-27T03:47:41;99558.19;;;22.60
76541;BMP280;65385;55.772;37.658;2023-05-27T03:48:42;99569.41;;;22.49
76541;BMP280;65385;55.772;37.658;2023-05-27T03:49:43;99551.38;;;22.43
76541;BMP280;65385;55.772;37.658;2023-05-27T03:50:44;99556.50;;;22.51
76541;BMP280;65385;55.772;37.658;2023-05-27T03:51:44;99552.47;;;22.42
76541;BMP280;65385;55.772;37.658;2023-05-27T03:52:46;99550.13;;;22.56
76541;BMP280;65385;55.772;37.658;2023-05-27T03:53:47;99563.25;;;22.80
76541;BMP280;65385;55.772;37.658;2023-05-27T03:54:48;99553.56;;;23.10
76541;BMP280;65385;55.772;37.658;2023-05-27T03:55:48;99565.16;;;23.18
76541;BMP280;65385;55.772;37.658;2023-05-27T03:56:49;99558.75;;;23.23
76541;BMP280;65385;55.772;37.658;2023-05-27T03:57:51;99562.09;;;23.39
76541;BMP280;65385;55.772;37.658;2023-05-27T03:58:52;99573.06;;;23.53
76541;BMP280;65385;55.772;37.658;2023-05-27T03:59:52;99560.31;;;23.65
76541;BMP280;65385;55.772;37.658;2023-05-27T04:00:53;99559.00;;;23.78
76541;BMP280;65385;55.772;37.658;2023-05-27T04:01:55;99569.50;;;23.68
76541;BMP280;65385;55.772;37.658;2023-05-27T04:02:56;99570.78;;;23.74
76541;BMP280;65385;55.772;37.658;2023-05-27T04:03:57;99566.84;;;23.68
76541;BMP280;65385;55.772;37.658;2023-05-27T04:04:58;99572.69;;;23.73
76541;BMP280;65385;55.772;37.658;2023-05-27T04:05:59;99560.31;;;23.65
76541;BMP280;65385;55.772;37.658;2023-05-27T04:07:00;99575.38;;;23.54
76541;BMP280;65385;55.772;37.658;2023-05-27T04:08:02;99569.41;;;23.42
76541;BMP280;65385;55.772;37.658;2023-05-27T04:09:04;99572.66;;;23.32
76541;BMP280;65385;55.772;37.658;2023-05-27T04:10:05;99569.78;;;23.40
76541;BMP280;65385;55.772;37.658;2023-05-27T04:11:10;99578.34;;;23.30
76541;BMP280;65385;55.772;37.658;2023-05-27T04:12:11;99575.50;;;23.61
76541;BMP280;65385;55.772;37.658;2023-05-27T04:13:12;99576.34;;;23.65
76541;BMP280;65385;55.772;37.658;2023-05-27T04:14:14;99571.19;;;23.76
76541;BMP280;65385;55.772;37.658;2023-05-27T04:15:15;99572.91;;;23.65
76541;BMP280;65385;55.772;37.658;2023-05-27T04:16:17;99574.09;;;23.67
76541;BMP280;65385;55.772;37.658;2023-05-27T04:17:18;99571.50;;;23.94
76541;BMP280;65385;55.772;37.658;2023-05-27T04:18:19;99581.63;;;24.07
76541;BMP280;65385;55.772;37.658;2023-05-27T04:19:20;99574.22;;;24.23
76541;BMP280;65385;55.772;37.658;2023-05-27T04:20:22;99580.34;;;24.46
76541;BMP280;65385;55.772;37.658;2023-05-27T04:21:27;99575.75;;;24.47
76541;BMP280;65385;55.772;37.658;2023-05-27T04:22:30;99574.69;;;24.55
76541;BMP280;65385;55.772;37.658;2023-05-27T04:23:30;99569.63;;;24.76
76541;BMP280;65385;55.772;37.658;2023-05-27T04:24:32;99569.66;;;24.80
76541;BMP280;65385;55.772;37.658;2023-05-27T04:25:33;99567.53;;;24.92
76541;BMP280;65385;55.772;37.658;2023-05-27T04:26:38;99575.19;;;24.94
76541;BMP280;65385;55.772;37.658;2023-05-27T04:27:41;99578.75;;;25.01
76541;BMP280;65385;55.772;37.658;2023-05-27T04:28:42;99571.91;;;24.74
76541;BMP280;65385;55.772;37.658;2023-05-27T04:29:45;99575.41;;;24.78
76541;BMP280;65385;55.772;37.658;2023-05-27T04:30:49;99575.47;;;24.82
76541;BMP280;65385;55.772;37.658;2023-05-27T04:32:20;99571.25;;;24.84
76541;BMP280;65385;55.772;37.658;2023-05-27T04:33:21;99576.09;;;24.72
76541;BMP280;65385;55.772;37.658;2023-05-27T04:34:23;99579.09;;;24.70
76541;BMP280;65385;55.772;37.658;2023-05-27T04:35:23;99567.28;;;24.71
76541;BMP280;65385;55.772;37.658;2023-05-27T04:36:24;99567.69;;;24.73
76541;BMP280;65385;55.772;37.658;2023-05-27T04:37:45;99584.44;;;24.40
76541;BMP280;65385;55.772;37.658;2023-05-27T04:38:48;99572.59;;;24.41
76541;BMP280;65385;55.772;37.658;2023-05-27T04:39:51;99576.72;;;24.35
76541;BMP280;65385;55.772;37.658;2023-05-27T04:40:53;99578.03;;;24.48
76541;BMP280;65385;55.772;37.658;2023-05-27T04:42:06;99584.66;;;24.55
76541;BMP280;65385;55.772;37.658;2023-05-27T04:43:07;99580.88;;;24.59
76541;BMP280;65385;55.772;37.658;2023-05-27T04:44:08;99572.78;;;24.55
76541;BMP280;65385;55.772;37.658;2023-05-27T04:45:13;99575.09;;;24.53
76541;BMP280;65385;55.772;37.658;2023-05-27T04:46:14;99576.97;;;24.53
76541;BMP280;65385;55.772;37.658;2023-05-27T04:47:16;99577.66;;;24.46
76541;BMP280;65385;55.772;37.658;2023-05-27T04:48:16;99579.84;;;24.41
76541;BMP280;65385;55.772;37.658;2023-05-27T04:49:18;99576.91;;;24.49
76541;BMP280;65385;55.772;37.658;2023-05-27T04:50:19;99582.00;;;24.55
76541;BMP280;65385;55.772;37.658;2023-05-27T04:51:21;99586.25;;;24.63
76541;BMP280;65385;55.772;37.658;2023-05-27T04:52:23;99572.34;;;24.80
76541;BMP280;65385;55.772;37.658;2023-05-27T04:53:23;99586.69;;;24.94
76541;BMP280;65385;55.772;37.658;2023-05-27T04:54:26;99584.00;;;24.94
76541;BMP280;65385;55.772;37.658;2023-05-27T04:55:28;99582.19;;;25.02
76541;BMP280;65385;55.772;37.658;2023-05-27T04:56:30;99583.88;;;25.17
76541;BMP280;65385;55.772;37.658;2023-05-27T04:57:31;99592.59;;;25.44
76541;BMP280;65385;55.772;37.658;2023-05-27T04:58:32;99594.56;;;25.50
76541;BMP280;65385;55.772;37.658;2023-05-27T04:59:32;99590.03;;;25.54
76541;BMP280;65385;55.772;37.658;2023-05-27T05:00:47;99589.84;;;25.77
76541;BMP280;65385;55.772;37.658;2023-05-27T05:01:53;99588.41;;;25.86
76541;BMP280;65385;55.772;37.658;2023-05-27T05:03:12;99603.50;;;26.09
76541;BMP280;65385;55.772;37.658;2023-05-27T05:04:20;99591.03;;;26.37
76541;BMP280;65385;55.772;37.658;2023-05-27T05:05:26;99600.69;;;26.45
76541;BMP280;65385;55.772;37.658;2023-05-27T05:06:27;99590.41;;;26.54
76541;BMP280;65385;55.772;37.658;2023-05-27T05:07:29;99590.75;;;26.53
76541;BMP280;65385;55.772;37.658;2023-05-27T05:08:29;99598.88;;;26.67
76541;BMP280;65385;55.772;37.658;2023-05-27T05:09:30;99596.06;;;26.46
76541;BMP280;65385;55.772;37.658;2023-05-27T05:10:36;99601.81;;;26.41
76541;BMP280;65385;55.772;37.658;2023-05-27T05:11:39;99605.69;;;26.47
76541;BMP280;65385;55.772;37.658;2023-05-27T05:12:41;99608.97;;;26.23
76541;BMP280;65385;55.772;37.658;2023-05-27T05:13:42;99608.25;;;26.29
76541;BMP280;65385;55.772;37.658;2023-05-27T05:14:43;99603.13;;;26.07
76541;BMP280;65385;55.772;37.658;2023-05-27T05:15:43;99602.25;;;25.95
76541;BMP280;65385;55.772;37.658;2023-05-27T05:16:44;99603.59;;;25.72
76541;BMP280;65385;55.772;37.658;2023-05-27T05:17:45;99601.41;;;25.84
76541;BMP280;65385;55.772;37.658;2023-05-27T05:18:46;99606.84;;;25.91
76541;BMP280;65385;55.772;37.658;2023-05-27T05:19:46;99608.09;;;26.05
76541;BMP280;65385;55.772;37.658;2023-05-27T05:20:47;99612.06;;;26.21
76541;BMP280;65385;55.772;37.658;2023-05-27T05:21:52;99606.41;;;26.44
76541;BMP280;65385;55.772;37.658;2023-05-27T05:22:52;99596.06;;;26.35
76541;BMP280;65385;55.772;37.658;2023-05-27T05:23:53;99607.16;;;26.37
76541;BMP280;65385;55.772;37.658;2023-05-27T05:24:54;99603.72;;;26.40
76541;BMP280;65385;55.772;37.658;2023-05-27T05:26:05;99604.94;;;26.53
76541;BMP280;65385;55.772;37.658;2023-05-27T05:27:07;99606.38;;;26.37
76541;BMP280;65385;55.772;37.658;2023-05-27T05:28:08;99601.16;;;26.04
76541;BMP280;65385;55.772;37.658;2023-05-27T05:29:10;99595.41;;;26.02
76541;BMP280;65385;55.772;37.658;2023-05-27T05:30:11;99606.50;;;26.00
76541;BMP280;65385;55.772;37.658;2023-05-27T05:31:12;99605.22;;;25.83
76541;BMP280;65385;55.772;37.658;2023-05-27T05:32:12;99601.25;;;25.67
76541;BMP280;65385;55.772;37.658;2023-05-27T05:33:13;99603.50;;;25.61
76541;BMP280;65385;55.772;37.658;2023-05-27T05:34:14;99611.84;;;25.53
76541;BMP280;65385;55.772;37.658;2023-05-27T05:35:15;99587.28;;;25.47
76541;BMP280;65385;55.772;37.658;2023-05-27T05:36:21;99597.94;;;25.40
76541;BMP280;65385;55.772;37.658;2023-05-27T05:37:30;99598.44;;;25.53
76541;BMP280;65385;55.772;37.658;2023-05-27T05:38:30;99617.22;;;25.53
76541;BMP280;65385;55.772;37.658;2023-05-27T05:39:32;99590.59;;;25.37
76541;BMP280;65385;55.772;37.658;2023-05-27T05:40:33;99608.31;;;25.45
76541;BMP280;65385;55.772;37.658;2023-05-27T05:41:49;99615.47;;;25.34
76541;BMP280;65385;55.772;37.658;2023-05-27T05:42:51;99621.63;;;25.35
76541;BMP280;65385;55.772;37.658;2023-05-27T05:43:52;99609.22;;;25.23
76541;BMP280;65385;55.772;37.658;2023-05-27T05:44:53;99606.38;;;25.09
76541;BMP280;65385;55.772;37.658;2023-05-27T05:45:54;99615.19;;;24.80
76541;BMP280;65385;55.772;37.658;2023-05-27T05:46:55;99619.72;;;24.76
76541;BMP280;65385;55.772;37.658;2023-05-27T05:47:58;99627.13;;;24.86
76541;BMP280;65385;55.772;37.658;2023-05-27T05:49:02;99611.03;;;25.12
76541;BMP280;65385;55.772;37.658;2023-05-27T05:50:16;99619.44;;;25.14
76541;BMP280;65385;55.772;37.658;2023-05-27T05:51:17;99613.78;;;25.19
76541;BMP280;65385;55.772;37.658;2023-05-27T05:52:21;99619.72;;;25.39
76541;BMP280;65385;55.772;37.658;2023-05-27T05:53:22;99601.88;;;25.16
76541;BMP280;65385;55.772;37.658;2023-05-27T05:54:23;99609.41;;;25.07
76541;BMP280;65385;55.772;37.658;2023-05-27T05:55:28;99611.06;;;25.15
76541;BMP280;65385;55.772;37.658;2023-05-27T05:56:29;99616.34;;;25.45